• Join FlightAware (Why Join?)
  • Login
  • US Flag 
08:01PM EDT


 

Airport Tracker/Info


-or-


 

Live Flight TrackerFlight Track Log ✈ UAL4536 ✈ 24-Apr-2013 ✈ KIAH - KCLT

Flight Track Log - Related Links

Times and Time Zones

All times are in EDT time to prevent confusion due to time zone crossing. See the UAL4536 flight status page for this flight to view local times or setup timezone preferences in your user account.

Time Position Orientation Groundspeed Altitude Reporting Facility
EDT Latitude Longitude Course Direction KTS MPH feet Rate Location/Type
02:16PM 29.9764 -95.2983 90° East 168 193 600  Level Houston Center
02:16PM 29.9444 -95.2686 141° Southeast 210 242 1,800 1,500 Climbing Houston Center
02:18PM 29.8858 -95.2250 147° Southeast 260 299 3,400 1,260 Climbing Houston Center
02:18PM 29.8842 -95.2225 128° Southeast 232 267 3,400 1,440 Level Houston Center
02:19PM 29.9834 -94.7861 90° East  Level FlightAware Approximate
02:19PM 29.8183 -95.1472 135° Southeast 265 305 5,300  Level Houston Center
02:20PM 29.9833 -94.6493 90° East  Level FlightAware Approximate
02:20PM 29.8114 -95.0800 97° East 282 325 7,000  Level Houston Center
02:20PM 29.8111 -95.0564 91° East 283 326 7,400 1,800 Climbing Houston Center
02:21PM 29.9834 -94.5124 90° East  Level FlightAware Approximate
02:21PM 29.8211 -94.9847 81° East 302 348 8,900  Level Houston Center
02:21PM 29.8264 -94.9639 74° East 297 342 9,400 960 Climbing Houston Center
02:22PM 29.8511 -94.8692 73° East 306 352 10,200 720 Climbing Houston Center
02:23PM 29.8814 -94.7583 72° East 350 403 11,000 720 Climbing Houston Center
02:24PM 29.9108 -94.6428 74° East 371 427 11,700 660 Climbing Houston Center
02:25PM 29.9417 -94.5203 74° East 391 450 12,400 660 Climbing Houston Center
02:26PM 29.9742 -94.3864 74° East 404 465 13,100 780 Climbing Houston Center
02:27PM 30.0056 -94.2339 77° East 409 471 14,100 840 Climbing Houston Center
02:28PM 30.0219 -94.1014 82° East 416 479 14,900 780 Climbing Houston Center
02:29PM 30.0386 -93.9689 82° East 419 482 15,800 780 Climbing Houston Center
02:30PM 30.0550 -93.8353 82° East 422 486 16,600 720 Climbing Houston Center
02:31PM 30.0708 -93.7006 82° East 425 489 17,400 720 Climbing Houston Center
02:32PM 30.0903 -93.5381 82° East 433 498 18,200 780 Climbing Houston Center
02:33PM 30.1053 -93.4006 83° East 440 506 19,100 780 Climbing Houston Center
02:34PM 30.1214 -93.2650 82° East 434 499 19,900 780 Climbing Houston Center
02:35PM 30.1383 -93.1264 82° East 438 504 20,800 780 Climbing Houston Center
02:36PM 30.1639 -92.9900 78° East 439 505 21,600 840 Climbing Houston Center
02:37PM 30.1956 -92.8267 77° East 436 502 22,600 840 Climbing Houston Center
02:38PM 30.2219 -92.6886 77° East 439 505 23,400 780 Climbing Houston Center
02:40PM 30.2489 -92.5489 77° East 444 511 24,300 780 Climbing Houston Center
02:41PM 30.2756 -92.4117 77° East 442 509 25,100 840 Climbing Houston Center
02:42PM 30.3044 -92.2594 78° East 444 511 26,100 840 Climbing Houston Center
02:43PM 30.3308 -92.1211 78° East 444 511 26,900 720 Climbing Houston Center
02:44PM 30.3572 -91.9819 78° East 444 511 27,700 840 Climbing Houston Center
02:45PM 30.3889 -91.8139 78° East 446 513 28,700 840 Climbing Houston Center
02:46PM 30.4133 -91.6844 78° East 446 513 29,500 720 Climbing Houston Center
02:47PM 30.4400 -91.5436 78° East 447 514 30,300 780 Climbing Houston Center
02:48PM 30.4658 -91.4003 78° East 454 522 31,200 900 Climbing Houston Center
02:49PM 30.5144 -91.2342 71° East 455 524 32,200 840 Climbing Houston Center
02:50PM 30.5772 -91.1050 61° Northeast 458 527 33,000 780 Climbing Houston Center
02:51PM 30.6378 -90.9747 62° Northeast 459 528 33,900 780 Climbing Houston Center
02:52PM 30.6994 -90.8467 61° Northeast 456 525 34,700 480 Climbing Houston Center
02:53PM 30.7614 -90.7156 61° Northeast 459 528 35,000 120 Climbing Houston Center
02:54PM 30.8256 -90.5806 61° Northeast 471 542 35,000  Level Houston Center
02:55PM 30.9058 -90.4111 61° Northeast 494 568 35,000  Level Houston Center
02:56PM 30.9736 -90.2658 61° Northeast 505 581 35,000  Level Houston Center
02:57PM 31.0425 -90.1211 61° Northeast 508 585 35,000  Level Houston Center
02:58PM 31.1403 -90.0086 45° Northeast 495 570 35,000  Level Houston Center
02:59PM 31.2481 -89.9058 39° Northeast 496 571 35,000  Level Houston Center
03:00PM 31.3572 -89.8022 39° Northeast 502 578 35,000  Level Houston Center
03:01PM 31.4628 -89.7006 39° Northeast 496 571 35,000  Level Houston Center
03:02PM 31.5914 -89.5764 39° Northeast 497 572 35,000  Level Houston Center
03:03PM 31.6872 -89.4836 39° Northeast 501 577 35,000  Level Houston Center
03:04PM 31.7944 -89.3789 40° Northeast 501 577 35,000  Level Houston Center
03:05PM 31.9344 -89.2708 33° Northeast 498 573 35,000  Level Houston Center
03:06PM 32.0506 -89.1783 34° Northeast 497 572 35,000  Level Memphis Center
03:07PM 32.1558 -89.0617 43° Northeast 502 578 35,000  Level Memphis Center
03:08PM 32.2589 -88.9447 44° Northeast 502 578 35,000  Level Memphis Center
03:09PM 32.3617 -88.8225 45° Northeast 507 583 35,000  Level Memphis Center
03:10PM 32.4392 -88.6786 57° Northeast 507 583 35,000  Level Memphis Center
03:11PM 32.5183 -88.5119 61° Northeast 518 596 35,000  Level Memphis Center
03:14PM 32.6794 -88.1650 61° Northeast 521 600 35,000  Level Atlanta Center
03:15PM 32.7406 -88.0247 63° Northeast 521 600 35,000  Level Atlanta Center
03:16PM 32.8167 -87.8600 61° Northeast 526 605 35,000  Level Atlanta Center
03:17PM 32.8881 -87.7097 60° Northeast 526 605 35,000  Level Atlanta Center
03:18PM 32.9572 -87.5567 62° Northeast 521 600 35,000  Level Atlanta Center
03:19PM 33.0128 -87.4350 61° Northeast 521 600 35,000  Level Atlanta Center
03:20PM 33.0839 -87.2692 63° Northeast 515 593 35,000  Level Atlanta Center
03:21PM 33.1525 -87.1156 62° Northeast 510 587 35,000  Level Atlanta Center
03:22PM 33.2278 -86.9467 62° Northeast 510 587 35,000  Level Atlanta Center
03:23PM 33.2631 -86.7717 76° East 513 590 35,000  Level Atlanta Center
03:24PM 33.2917 -86.6011 79° East 523 602 35,000  Level Atlanta Center
03:25PM 33.3114 -86.4525 81° East 518 596 35,000  Level Atlanta Center
03:26PM 33.3464 -86.2644 77° East 518 596 35,000  Level Atlanta Center
03:27PM 33.3742 -86.1033 78° East 518 596 35,000  Level Atlanta Center
03:28PM 33.3997 -85.9397 79° East 511 588 35,000  Level Atlanta Center
03:29PM 33.4250 -85.7761 79° East 497 572 35,000  Level Atlanta Center
03:30PM 33.4503 -85.6122 79° East 497 572 35,000  Level Atlanta Center
03:31PM 33.4772 -85.4433 79° East 509 586 35,000  Level Atlanta Center
03:32PM 33.5019 -85.2819 80° East 509 586 35,000  Level Atlanta Center
03:33PM 33.5286 -85.1153 79° East 501 577 35,000  Level Atlanta Center
03:34PM 33.5486 -84.9711 81° East 501 577 35,000  Level Atlanta Center
03:35PM 33.5728 -84.8092 80° East 496 571 35,000  Level Atlanta Center
03:36PM 33.5986 -84.6472 79° East 496 571 35,000  Level Atlanta Center
03:37PM 33.6392 -84.4681 75° East 496 571 35,000  Level Atlanta Center
03:38PM 33.6792 -84.3133 73° East 488 562 35,000  Level Atlanta Center
03:39PM 33.7211 -84.1661 71° East 500 575 35,000  Level Atlanta Center
03:40PM 33.7650 -84.0089 71° East 500 575 35,000  Level Atlanta Center
03:41PM 33.8067 -83.8514 72° East 495 570 35,000  Level Atlanta Center
03:42PM 33.8500 -83.6986 71° East 485 558 35,000 -600 Level Atlanta Center
03:43PM 33.8914 -83.5408 72° East 485 558 33,800 -1,380 Descending Atlanta Center
03:44PM 33.9344 -83.3828 72° East 485 558 32,300 -1,500 Descending Atlanta Center
03:45PM 33.9753 -83.2297 72° East 485 558 30,900 -1,200 Descending Atlanta Center
03:46PM 34.0158 -83.0689 73° East 485 558 30,000 -900 Descending Atlanta Center
03:47PM 34.0603 -82.8978 73° East 494 568 29,200 -1,200 Descending Atlanta Center
03:48PM 34.1003 -82.7369 73° East 494 568 27,700 -1,560 Descending Atlanta Center
03:49PM 34.1444 -82.5781 71° East 494 568 26,100 -1,560 Descending Atlanta Center
03:50PM 34.1844 -82.4217 73° East 494 568 24,600 -1,080 Descending Atlanta Center
03:51PM 34.2239 -82.2625 73° East 489 563 24,000 -1,680 Descending Atlanta Center
03:52PM 34.2822 -82.1181 64° Northeast 482 555 21,300 -2,880 Descending Atlanta Center
03:53PM 34.3703 -82.0053 47° Northeast 463 533 18,300 -2,400 Descending Atlanta Center
03:54PM 34.4581 -81.8925 47° Northeast 456 525 16,600 -1,620 Descending Atlanta Center
03:55PM 34.5417 -81.7869 46° Northeast 450 518 15,100 -1,500 Descending Atlanta Center
03:55PM 34.5722 -81.7533 42° Northeast 438 504 14,600 -1,620 Descending Atlanta Center
03:56PM 34.6231 -81.6811 49° Northeast 431 496 13,500 -1,740 Descending Atlanta Center
03:57PM 34.6944 -81.5958 44° Northeast 421 484 12,000 -900 Descending Atlanta Center
03:58PM 34.7697 -81.4975 47° Northeast 421 484 12,000 -60 Level Atlanta Center
03:59PM 34.8511 -81.3939 46° Northeast 424 488 11,900 -780 Descending Atlanta Center
04:00PM 34.9300 -81.2900 47° Northeast 421 484 10,500 -900 Descending Atlanta Center
04:01PM 35.0194 -81.1781 46° Northeast 408 470 10,000 -420 Descending Atlanta Center
04:02PM 35.0903 -81.0892 46° Northeast 384 442 9,600 -600 Descending Atlanta Center
04:03PM 35.1775 -81.0683 11° North 279 321 8,900 -1,080 Descending Atlanta Center
04:04PM 35.2444 -81.0736 356° North 277 319 7,500 -1,380 Descending Atlanta Center
04:05PM 35.3133 -81.0811 355° North 225 259 6,100 -1,320 Descending Atlanta Center
04:06PM 35.3803 -81.0864 356° North 244 281 5,000 -1,080 Descending Atlanta Center
04:07PM 35.4119 -81.0167 61° Northeast 252 290 4,000 -660 Descending Atlanta Center
04:08PM 35.3714 -80.9825 146° Southeast 206 237 3,700 -420 Descending Atlanta Center
04:09PM 35.3253 -80.9764 174° South 167 192 3,300 -900 Descending Atlanta Center
04:10PM 35.2836 -80.9756 179° South 117 135 1,900 -1,260 Descending Atlanta Center